Time;durP1;ratioP1;P1;durP2;ratioP2;P2;SDS_P1;SDS_P2;PMS_P1;PMS_P2;Temp;Humidity;BMP_temperature;BMP_pressure;BME280_temperature;BME280_humidity;BME280_pressure;Samples;Min_cycle;Max_cycle;Signal;HPM_P1;HPM_P2
2022/11/27 00:01:37;;;;;;;;;20.50;20.00;;;;;8.20;76.58;101562.56;5055701;28;45227;-71
2022/11/27 00:04:03;;;;;;;;;23.50;23.50;;;;;8.22;76.24;101559.94;5054342;28;45421;-70
2022/11/27 00:06:30;;;;;;;;;20.75;19.00;;;;;8.21;76.42;101556.44;5055422;28;45321;-69
2022/11/27 00:09:00;;;;;;;;;19.00;19.00;;;;;8.16;76.13;101561.75;5054225;28;45518;-71
2022/11/27 00:11:27;;;;;;;;;19.25;19.25;;;;;8.10;76.12;101553.97;5055225;28;45561;-71
2022/11/27 00:13:52;;;;;;;;;23.25;23.25;;;;;8.06;75.14;101548.78;5054255;28;45504;-73
2022/11/27 00:16:19;;;;;;;;;21.75;21.75;;;;;8.04;76.31;101554.91;5055020;28;45405;-70
2022/11/27 00:18:45;;;;;;;;;23.50;23.50;;;;;7.97;76.31;101545.41;5055393;28;45482;-72
2022/11/27 00:21:16;;;;;;;;;21.50;21.25;;;;;7.88;76.58;101525.44;5055155;28;46045;-72
2022/11/27 00:23:42;;;;;;;;;21.25;21.00;;;;;7.95;76.18;101534.09;5055308;28;45351;-72
2022/11/27 00:26:08;;;;;;;;;26.75;26.75;;;;;7.97;76.12;101528.84;5055203;28;45401;-72
2022/11/27 00:28:34;;;;;;;;;18.00;18.00;;;;;7.99;76.20;101534.94;5055695;28;45509;-72
2022/11/27 00:31:06;;;;;;;;;14.25;11.75;;;;;7.94;76.20;101518.38;5055132;28;45454;-70
2022/11/27 00:33:31;;;;;;;;;22.00;21.50;;;;;7.97;76.34;101527.06;5055046;28;45356;-72
2022/11/27 00:36:01;;;;;;;;;22.75;22.75;;;;;7.93;76.13;101519.25;5055214;28;45396;-71
2022/11/27 00:38:27;;;;;;;;;16.75;16.50;;;;;7.98;76.16;101518.31;5053751;28;45335;-71
2022/11/27 00:40:52;;;;;;;;;22.25;22.25;;;;;7.96;76.08;101517.47;5054402;28;45902;-71
2022/11/27 00:43:17;;;;;;;;;19.00;19.00;;;;;7.94;76.16;101515.75;5054713;28;45241;-72
2022/11/27 00:45:48;;;;;;;;;19.50;19.50;;;;;7.95;76.28;101510.50;5054823;28;45320;-71
2022/11/27 00:48:13;;;;;;;;;24.50;24.50;;;;;7.91;75.80;101506.19;5054993;28;45302;-72
2022/11/27 00:50:39;;;;;;;;;20.25;20.25;;;;;7.88;75.82;101499.22;5054646;28;46323;-71
2022/11/27 00:53:04;;;;;;;;;27.75;27.00;;;;;7.99;75.94;101506.94;5054637;28;45337;-71
2022/11/27 00:55:29;;;;;;;;;19.75;19.75;;;;;7.91;76.17;101485.25;5054762;28;45399;-72
2022/11/27 00:57:55;;;;;;;;;23.25;20.50;;;;;7.90;75.81;101479.13;5054898;28;45525;-71
2022/11/27 01:00:21;;;;;;;;;21.50;20.75;;;;;7.99;76.29;101499.09;5054497;28;46351;-70
2022/11/27 01:02:47;;;;;;;;;21.00;21.00;;;;;7.97;75.93;101490.38;5086936;27;45983;-72
2022/11/27 01:05:12;;;;;;;;;21.50;21.25;;;;;7.83;75.84;101461.75;5054541;28;45776;-72
2022/11/27 01:07:37;;;;;;;;;19.75;19.75;;;;;7.99;75.71;101483.38;5054844;28;45552;-72
2022/11/27 01:10:03;;;;;;;;;20.25;20.25;;;;;7.94;76.00;101484.31;5054463;28;45367;-73
2022/11/27 01:12:28;;;;;;;;;20.50;20.50;;;;;7.95;75.56;101493.91;5053990;28;45337;-72
2022/11/27 01:14:54;;;;;;;;;22.25;22.25;;;;;7.94;75.91;101493.06;5054637;28;45363;-72
2022/11/27 01:17:19;;;;;;;;;31.25;31.25;;;;;7.86;76.09;101473.97;5055000;28;45230;-70
2022/11/27 01:19:45;;;;;;;;;20.00;18.25;;;;;7.89;76.16;101479.16;5087126;27;47868;-74
2022/11/27 01:22:10;;;;;;;;;17.25;17.25;;;;;7.86;76.19;101476.59;5054495;28;45172;-71
2022/11/27 01:24:35;;;;;;;;;19.00;19.00;;;;;7.86;75.65;101481.81;5054146;28;45208;-72
2022/11/27 01:27:01;;;;;;;;;17.75;17.75;;;;;7.80;76.01;101471.44;5053812;28;45587;-73
2022/11/27 01:29:26;;;;;;;;;22.50;22.50;;;;;7.74;75.71;101486.34;5054158;28;45422;-73
2022/11/27 01:31:51;;;;;;;;;17.25;17.25;;;;;7.74;76.53;101493.31;5054407;28;45366;-72
2022/11/27 01:34:17;;;;;;;;;13.75;13.00;;;;;7.70;76.52;101487.28;5054785;28;45295;-73
2022/11/27 01:36:42;;;;;;;;;28.50;28.50;;;;;7.63;76.58;101464.69;5054535;28;45444;-73
2022/11/27 01:39:14;;;;;;;;;18.50;18.50;;;;;7.67;76.65;101471.59;5053976;28;45571;-73
2022/11/27 01:41:39;;;;;;;;;17.25;15.75;;;;;7.65;76.33;101460.28;5054359;28;45282;-72
2022/11/27 01:44:23;;;;;;;;;15.25;15.25;;;;;7.69;76.80;101463.72;5054040;28;45796;-71
2022/11/27 01:47:13;;;;;;;;;20.75;20.75;;;;;7.68;76.88;101462.88;5054043;28;45233;-72
2022/11/27 01:49:43;;;;;;;;;22.25;22.25;;;;;7.68;76.28;101451.50;5053740;28;46432;-72
2022/11/27 01:52:08;;;;;;;;;23.00;23.00;;;;;7.69;76.13;101455.88;5054135;28;45251;-71
2022/11/27 01:54:55;;;;;;;;;16.25;16.25;;;;;7.68;76.76;101457.63;5053769;28;45316;-71
2022/11/27 01:57:23;;;;;;;;;18.75;18.75;;;;;7.68;76.93;101460.25;5054236;28;45244;-71
2022/11/27 01:59:50;;;;;;;;;17.25;17.25;;;;;7.68;76.18;101459.38;5053586;28;45408;-71
2022/11/27 02:02:16;;;;;;;;;17.25;17.25;;;;;7.67;76.57;101455.00;5053382;28;45216;-71
2022/11/27 02:04:41;;;;;;;;;18.00;18.00;;;;;7.66;76.42;101451.53;5053489;28;45742;-69
2022/11/27 02:07:06;;;;;;;;;19.25;19.25;;;;;7.65;76.96;101441.97;5054275;28;45602;-71
2022/11/27 02:09:32;;;;;;;;;17.25;17.25;;;;;7.65;77.10;101441.06;5053456;28;46086;-71
2022/11/27 02:12:26;;;;;;;;;19.00;18.00;;;;;7.57;76.79;101423.72;5053479;28;45264;-70
2022/11/27 02:15:25;;;;;;;;;19.00;19.00;;;;;7.65;77.10;101439.34;5053667;28;45458;-71
2022/11/27 02:18:05;;;;;;;;;19.00;19.00;;;;;7.67;77.17;101439.31;5051883;28;45230;-71
2022/11/27 02:20:46;;;;;;;;;16.75;16.50;;;;;7.69;76.67;101432.28;5053402;28;46078;-72
2022/11/27 02:23:50;;;;;;;;;17.75;17.50;;;;;7.69;77.05;101448.00;5053322;28;45466;-71
2022/11/27 02:26:38;;;;;;;;;17.50;17.50;;;;;7.71;76.84;101438.38;5053795;28;45368;-71
2022/11/27 02:29:09;;;;;;;;;16.25;16.25;;;;;7.71;76.21;101441.88;5068881;28;45546;-72
2022/11/27 02:31:55;;;;;;;;;18.50;18.50;;;;;7.56;76.92;101402.81;5053287;28;45619;-71
2022/11/27 02:34:38;;;;;;;;;18.50;17.25;;;;;7.74;76.92;101430.47;5053375;28;45279;-71
2022/11/27 02:37:35;;;;;;;;;17.25;17.25;;;;;7.74;76.53;101433.09;5054834;28;45312;-71
2022/11/27 02:40:08;;;;;;;;;15.00;15.00;;;;;7.71;76.60;101425.28;5055288;28;45296;-70
2022/11/27 02:42:44;;;;;;;;;17.25;17.25;;;;;7.73;76.73;101433.97;5105775;27;46205;-70
2022/11/27 02:45:13;;;;;;;;;17.00;16.75;;;;;7.74;76.94;101433.97;5056717;28;45246;-71
2022/11/27 02:47:45;;;;;;;;;15.50;15.50;;;;;7.74;76.94;101430.47;5056567;28;45360;-71
2022/11/27 02:50:16;;;;;;;;;19.50;19.50;;;;;7.74;76.95;101426.13;5056745;28;45669;-72
2022/11/27 02:52:44;;;;;;;;;18.00;18.00;;;;;7.73;76.36;101419.16;5056151;27;46395;-72
2022/11/27 02:55:14;;;;;;;;;28.75;28.75;;;;;7.70;76.14;101413.94;5056290;28;45256;-71
2022/11/27 02:57:41;;;;;;;;;17.75;17.75;;;;;7.67;76.40;101392.16;5056724;28;45436;-71
2022/11/27 03:00:08;;;;;;;;;16.75;15.25;;;;;7.70;76.90;101400.84;5056651;28;45304;-72
2022/11/27 03:02:41;;;;;;;;;16.25;16.25;;;;;7.73;76.39;101392.94;5056275;28;46297;-70
2022/11/27 03:05:12;;;;;;;;;13.00;13.00;;;;;7.73;76.99;101381.59;5056430;28;45398;-70
2022/11/27 03:07:43;;;;;;;;;12.75;12.75;;;;;7.71;77.33;101386.00;5056282;28;45363;-72
2022/11/27 03:10:18;;;;;;;;;15.75;15.75;;;;;7.71;76.53;101383.38;5056952;28;45247;-72
2022/11/27 03:12:44;;;;;;;;;15.50;15.50;;;;;7.72;76.98;101390.34;5056436;28;45287;-73
2022/11/27 03:15:10;;;;;;;;;15.00;15.00;;;;;7.72;76.93;101382.50;5056711;28;45156;-73
2022/11/27 03:17:49;;;;;;;;;12.25;12.25;;;;;7.73;76.34;101379.84;5056494;28;45287;-72
2022/11/27 03:20:39;;;;;;;;;12.25;12.25;;;;;7.74;76.74;101378.09;5056802;28;45338;-69
2022/11/27 03:23:05;;;;;;;;;13.25;13.25;;;;;7.71;76.41;101376.41;5052561;27;46546;-71
2022/11/27 03:25:30;;;;;;;;;17.50;17.50;;;;;7.70;76.57;101381.66;5055737;28;45297;-71
2022/11/27 03:28:01;;;;;;;;;16.00;14.75;;;;;7.71;76.57;101379.03;5056160;28;45199;-72
2022/11/27 03:30:26;;;;;;;;;10.75;10.75;;;;;7.73;76.73;101372.00;5056400;28;45327;-70
2022/11/27 03:32:52;;;;;;;;;10.75;10.75;;;;;7.71;77.20;101363.31;5055691;28;46126;-72
2022/11/27 03:35:20;;;;;;;;;12.50;12.50;;;;;7.71;76.38;101359.81;5055887;28;45368;-71
2022/11/27 03:37:46;;;;;;;;;11.25;11.25;;;;;7.69;76.75;101352.00;5056033;28;45499;-70
2022/11/27 03:40:13;;;;;;;;;13.50;13.50;;;;;7.71;77.14;101355.44;5056143;28;45534;-70
2022/11/27 03:43:21;;;;;;;;;12.00;12.00;;;;;7.71;77.37;101344.09;5055615;28;46757;-70
2022/11/27 03:46:07;;;;;;;;;12.75;12.75;;;;;7.69;77.03;101351.09;5016096;28;45340;-70
2022/11/27 03:48:42;;;;;;;;;9.00;9.00;;;;;7.65;77.22;101334.59;5032050;28;45481;-72
2022/11/27 03:51:19;;;;;;;;;10.25;10.25;;;;;7.67;77.08;101339.78;5048675;28;45440;-71
2022/11/27 03:54:03;;;;;;;;;10.25;10.25;;;;;7.69;77.01;101336.28;5055574;28;46226;-71
2022/11/27 03:57:16;;;;;;;;;13.00;13.00;;;;;7.70;77.53;101338.00;5055439;28;45235;-71
2022/11/27 03:59:46;;;;;;;;;14.25;14.25;;;;;7.72;76.94;101319.63;5045474;28;45346;-71
2022/11/27 04:02:13;;;;;;;;;13.25;13.25;;;;;7.70;76.95;101319.69;5056057;28;45459;-72
2022/11/27 04:04:39;;;;;;;;;9.25;9.25;;;;;7.72;76.74;101315.28;5053643;28;46156;-72
2022/11/27 04:07:04;;;;;;;;;13.75;13.75;;;;;7.70;77.23;101322.28;5054789;28;45517;-73
2022/11/27 04:09:30;;;;;;;;;11.25;11.25;;;;;7.68;76.70;101320.56;5055278;28;45307;-72
2022/11/27 04:11:55;;;;;;;;;12.75;12.75;;;;;7.68;77.16;101318.84;5055402;28;45334;-72
2022/11/27 04:14:20;;;;;;;;;11.50;11.50;;;;;7.68;76.60;101318.84;5054944;28;46642;-71
2022/11/27 04:16:46;;;;;;;;;10.00;10.00;;;;;7.66;77.38;101320.63;5055480;28;49144;-71
2022/11/27 04:19:11;;;;;;;;;10.75;10.75;;;;;7.69;77.09;101325.81;5055304;28;45355;-72
2022/11/27 04:21:36;;;;;;;;;13.75;13.75;;;;;7.68;77.16;101334.56;5055378;28;45209;-71
2022/11/27 04:24:02;;;;;;;;;11.50;11.50;;;;;7.69;76.50;101333.66;5055250;28;45298;-71
2022/11/27 04:26:27;;;;;;;;;10.50;10.50;;;;;7.68;76.90;101328.44;5055406;28;45330;-70
2022/11/27 04:28:52;;;;;;;;;12.00;12.00;;;;;7.71;77.17;101325.75;5055313;28;45315;-71
2022/11/27 04:31:18;;;;;;;;;10.75;10.75;;;;;7.72;77.54;101324.88;5055717;28;45250;-72
2022/11/27 04:33:43;;;;;;;;;11.00;11.00;;;;;7.72;77.65;101312.66;5054719;28;45237;-71
2022/11/27 04:36:08;;;;;;;;;12.25;12.25;;;;;7.78;77.60;101310.81;5055157;28;45295;-71
2022/11/27 04:38:34;;;;;;;;;10.75;10.75;;;;;7.78;77.49;101308.22;5055054;28;45337;-70
2022/11/27 04:41:00;;;;;;;;;10.25;10.25;;;;;7.78;77.65;101295.97;5087619;27;45856;-70
2022/11/27 04:43:25;;;;;;;;;10.25;10.25;;;;;7.78;77.60;101297.72;5054768;28;46803;-71
2022/11/27 04:45:50;;;;;;;;;11.00;11.00;;;;;7.77;77.90;101294.22;5054491;28;45399;-70
2022/11/27 04:48:16;;;;;;;;;12.50;12.50;;;;;7.78;77.89;101287.25;5087720;27;45285;-70
2022/11/27 04:50:41;;;;;;;;;10.00;10.00;;;;;7.78;77.33;101293.34;5087697;27;45635;-70
2022/11/27 04:53:06;;;;;;;;;10.50;10.50;;;;;7.80;77.30;101282.84;5087286;27;48113;-71
2022/11/27 04:55:32;;;;;;;;;10.75;10.75;;;;;7.82;77.80;101262.72;5055493;28;45427;-71
2022/11/27 04:57:57;;;;;;;;;8.00;8.00;;;;;7.85;77.14;101267.91;5055391;28;45493;-71
2022/11/27 05:00:22;;;;;;;;;11.00;11.00;;;;;7.85;76.98;101271.38;5055151;28;45572;-71
2022/11/27 05:02:48;;;;;;;;;10.50;10.25;;;;;7.84;77.06;101268.81;5053742;28;48308;-71
2022/11/27 05:05:13;;;;;;;;;12.75;12.75;;;;;7.78;77.95;101251.44;5054836;28;45356;-71
2022/11/27 05:07:38;;;;;;;;;10.50;10.50;;;;;7.85;77.50;101266.16;5054517;28;45297;-72
2022/11/27 05:10:05;;;;;;;;;10.00;10.00;;;;;7.84;77.32;101267.03;5054881;28;45311;-71
2022/11/27 05:12:30;;;;;;;;;11.25;11.25;;;;;7.85;77.12;101254.81;5054321;28;46442;-70
2022/11/27 05:14:56;;;;;;;;;10.00;10.00;;;;;7.87;77.83;101258.28;5054569;28;45370;-71
2022/11/27 05:17:21;;;;;;;;;11.25;11.25;;;;;7.72;77.32;101228.84;5087342;27;45348;-69
2022/11/27 05:19:46;;;;;;;;;11.25;11.25;;;;;7.87;77.30;101246.03;5087497;27;45602;-70
2022/11/27 05:22:12;;;;;;;;;8.75;8.75;;;;;7.86;77.73;101240.84;5086838;27;47283;-70
2022/11/27 05:24:37;;;;;;;;;11.75;11.75;;;;;7.88;76.96;101241.66;5054601;28;45165;-71
2022/11/27 05:27:03;;;;;;;;;9.25;9.25;;;;;7.82;76.71;101234.78;5052992;28;45236;-70
2022/11/27 05:29:28;;;;;;;;;11.25;11.25;;;;;7.82;77.82;101234.78;5054612;28;45185;-70
2022/11/27 05:31:54;;;;;;;;;10.25;10.25;;;;;7.85;77.90;101241.72;5054033;28;45790;-71
2022/11/27 05:34:19;;;;;;;;;10.25;10.25;;;;;7.86;76.96;101243.44;5054430;28;45320;-71
2022/11/27 05:36:44;;;;;;;;;9.50;9.50;;;;;7.84;77.23;101246.09;5054190;28;45320;-71
2022/11/27 05:39:11;;;;;;;;;10.25;10.25;;;;;7.84;77.32;101247.84;5086867;27;45307;-71
2022/11/27 05:41:39;;;;;;;;;9.75;9.75;;;;;7.71;76.87;101226.25;5053954;28;46631;-71
2022/11/27 05:44:05;;;;;;;;;13.25;12.75;;;;;7.78;76.93;101242.72;5053843;28;45379;-69
2022/11/27 05:46:31;;;;;;;;;10.75;10.75;;;;;7.79;76.67;101249.69;5053788;28;45272;-71
2022/11/27 05:48:56;;;;;;;;;9.00;9.00;;;;;7.79;77.38;101236.59;5054106;28;45223;-71
2022/11/27 05:51:22;;;;;;;;;9.00;9.00;;;;;7.79;77.27;101241.84;5053748;28;45315;-70
2022/11/27 05:53:48;;;;;;;;;9.25;9.25;;;;;7.77;77.21;101230.53;5053721;28;45317;-70
2022/11/27 05:56:16;;;;;;;;;9.25;9.25;;;;;7.75;77.87;101226.19;5054350;28;45341;-70
2022/11/27 05:58:43;;;;;;;;;10.25;10.25;;;;;7.80;77.62;101233.09;5054145;28;45423;-71
2022/11/27 06:01:10;;;;;;;;;11.25;11.25;;;;;7.81;78.06;101226.97;5053894;28;45843;-71
2022/11/27 06:03:37;;;;;;;;;12.50;12.50;;;;;7.76;77.99;101213.94;5053545;28;45393;-72
2022/11/27 06:06:15;;;;;;;;;9.75;9.75;;;;;7.80;77.55;101238.31;5052212;28;45211;-71
2022/11/27 06:08:42;;;;;;;;;9.25;9.25;;;;;7.72;77.41;101239.34;5053677;28;45592;-72
2022/11/27 06:11:10;;;;;;;;;11.75;11.75;;;;;7.75;78.49;101231.41;5053325;28;46177;-71
2022/11/27 06:13:36;;;;;;;;;11.00;11.00;;;;;7.68;78.39;101216.72;5056559;28;45402;-70
2022/11/27 06:16:10;;;;;;;;;10.00;10.00;;;;;7.74;78.20;101226.19;5056796;28;45402;-70
2022/11/27 06:18:36;;;;;;;;;11.25;11.25;;;;;7.67;78.35;101211.47;5057152;28;45470;-71
2022/11/27 06:21:06;;;;;;;;;9.00;9.00;;;;;7.63;78.35;101205.47;5056671;28;52459;-71
2022/11/27 06:23:32;;;;;;;;;13.00;12.00;;;;;7.73;77.96;101214.00;5057066;28;45399;-72
2022/11/27 06:25:57;;;;;;;;;11.00;11.00;;;;;7.72;78.04;101221.00;5056918;28;45302;-71
2022/11/27 06:28:22;;;;;;;;;9.50;9.50;;;;;7.68;78.57;101213.22;5057482;28;45272;-70
2022/11/27 06:30:48;;;;;;;;;8.50;8.50;;;;;7.70;78.86;101214.94;5056927;28;45500;-71
2022/11/27 06:33:13;;;;;;;;;9.25;9.25;;;;;7.71;78.26;101224.50;5056788;28;45283;-72
2022/11/27 06:35:38;;;;;;;;;11.00;11.00;;;;;7.69;78.88;101222.78;5057205;28;45281;-72
2022/11/27 06:38:04;;;;;;;;;11.00;10.00;;;;;7.67;79.05;101209.75;5057288;28;45356;-72
2022/11/27 06:40:29;;;;;;;;;10.00;10.00;;;;;7.73;78.91;101203.50;5057243;28;46185;-72
2022/11/27 06:42:55;;;;;;;;;7.75;7.75;;;;;7.78;79.27;101198.22;5057906;28;45339;-73
2022/11/27 06:45:20;;;;;;;;;11.00;11.00;;;;;7.83;78.39;101198.97;5057497;28;45404;-72
2022/11/27 06:47:46;;;;;;;;;10.50;10.50;;;;;7.81;78.67;101193.75;5090430;27;45476;-71
2022/11/27 06:50:11;;;;;;;;;10.00;10.00;;;;;7.79;78.36;101192.06;5089473;27;47309;-72
2022/11/27 06:52:36;;;;;;;;;8.75;8.75;;;;;7.83;78.48;101191.97;5056274;28;55159;-71
2022/11/27 06:55:02;;;;;;;;;11.00;11.00;;;;;7.87;78.79;101184.94;5056864;28;45575;-72
2022/11/27 06:57:27;;;;;;;;;11.50;11.50;;;;;7.80;78.59;101172.84;5056546;28;45472;-70
2022/11/27 06:59:52;;;;;;;;;12.00;12.00;;;;;7.87;77.94;101185.78;5056803;28;50574;-72
2022/11/27 07:02:20;;;;;;;;;10.50;10.50;;;;;7.85;78.08;101181.47;5056642;28;45431;-70
2022/11/27 07:04:46;;;;;;;;;12.50;12.50;;;;;7.82;78.59;101176.31;5056819;28;45433;-70
2022/11/27 07:07:11;;;;;;;;;14.50;14.50;;;;;7.85;78.33;101176.25;5089117;27;45456;-71
2022/11/27 07:09:36;;;;;;;;;14.25;14.25;;;;;7.84;78.70;101180.59;5088992;27;47005;-71
2022/11/27 07:12:04;;;;;;;;;11.25;11.25;;;;;7.86;79.03;101172.72;5056572;28;45319;-69
2022/11/27 07:14:29;;;;;;;;;15.50;11.75;;;;;7.86;78.48;101172.72;5056402;28;45398;-70
2022/11/27 07:16:54;;;;;;;;;14.75;14.75;;;;;7.90;78.51;101169.16;5055197;28;45721;-70
2022/11/27 07:19:20;;;;;;;;;14.25;11.75;;;;;7.88;78.67;101166.56;5056086;28;46299;-70
2022/11/27 07:21:45;;;;;;;;;10.75;10.75;;;;;7.90;79.05;101161.31;5056025;28;50834;-69
2022/11/27 07:24:10;;;;;;;;;11.75;11.75;;;;;7.89;78.97;101160.41;5055308;28;45301;-71
2022/11/27 07:26:36;;;;;;;;;12.00;12.00;;;;;7.86;78.62;101155.25;5056331;28;45498;-70
2022/11/27 07:29:01;;;;;;;;;12.75;12.75;;;;;7.89;79.42;101160.41;5055948;28;45304;-70
2022/11/27 07:31:28;;;;;;;;;11.25;11.00;;;;;7.90;78.71;101169.16;5056356;28;45363;-71
2022/11/27 07:33:55;;;;;;;;;14.00;14.00;;;;;7.92;78.98;101166.50;5056728;28;45446;-70
2022/11/27 07:36:22;;;;;;;;;16.25;15.00;;;;;7.88;78.89;101176.19;5056442;28;45466;-70
2022/11/27 07:38:48;;;;;;;;;13.50;13.50;;;;;7.87;79.20;101174.47;5054386;28;47509;-70
2022/11/27 07:41:15;;;;;;;;;12.50;11.25;;;;;7.89;78.86;101172.66;5056005;28;45421;-71
2022/11/27 07:43:41;;;;;;;;;12.75;12.75;;;;;7.90;79.30;101185.72;5054470;28;45416;-70
2022/11/27 07:46:15;;;;;;;;;10.50;10.50;;;;;7.90;79.50;101183.09;5055829;28;45463;-71
2022/11/27 07:48:41;;;;;;;;;29.25;27.75;;;;;7.94;80.07;101183.94;5053800;28;48025;-70
2022/11/27 07:51:08;;;;;;;;;14.75;14.75;;;;;7.95;80.18;101174.28;5055599;28;45367;-72
2022/11/27 07:53:38;;;;;;;;;11.75;11.75;;;;;7.96;79.53;101173.44;5054495;28;45434;-73
2022/11/27 07:56:08;;;;;;;;;9.00;9.00;;;;;7.94;79.97;101173.44;5056379;28;45391;-72
2022/11/27 07:58:34;;;;;;;;;14.25;14.25;;;;;7.94;80.18;101165.59;5055698;28;46597;-71
2022/11/27 08:00:59;;;;;;;;;12.00;12.00;;;;;7.96;79.93;101160.34;5088628;27;45299;-73
2022/11/27 08:03:24;;;;;;;;;12.00;12.00;;;;;7.91;80.09;101170.88;5056080;28;45192;-72
2022/11/27 08:05:50;;;;;;;;;29.25;29.25;;;;;7.91;80.04;101170.88;5088770;27;45250;-72
2022/11/27 08:08:15;;;;;;;;;13.25;13.25;;;;;7.75;80.38;101152.84;5056675;28;46513;-73
2022/11/27 08:10:41;;;;;;;;;15.50;15.50;;;;;7.84;80.61;101166.66;5055771;28;45262;-72
2022/11/27 08:13:06;;;;;;;;;14.50;13.75;;;;;7.90;80.87;101166.53;5055592;28;45641;-71
2022/11/27 08:15:33;;;;;;;;;18.00;18.00;;;;;7.89;81.05;101170.06;5055965;28;45433;-69
2022/11/27 08:17:58;;;;;;;;;12.75;12.75;;;;;7.81;80.94;101158.88;5088372;27;48251;-72
2022/11/27 08:20:23;;;;;;;;;14.25;14.25;;;;;7.91;81.22;101165.66;5055252;28;45403;-71
2022/11/27 08:22:49;;;;;;;;;10.75;10.75;;;;;7.90;80.73;101164.75;5055681;28;45296;-73
2022/11/27 08:25:14;;;;;;;;;13.25;13.25;;;;;7.88;81.03;101144.75;5055691;28;45569;-71
2022/11/27 08:27:39;;;;;;;;;13.25;13.25;;;;;7.97;81.27;101152.44;5055302;28;45546;-71
2022/11/27 08:30:06;;;;;;;;;13.00;13.00;;;;;8.00;80.98;101151.50;5055621;28;45356;-71
2022/11/27 08:32:32;;;;;;;;;12.50;12.50;;;;;7.96;80.88;101142.84;5055982;28;45473;-71
2022/11/27 08:34:57;;;;;;;;;16.75;16.25;;;;;7.94;81.13;101133.28;5054942;28;45239;-71
2022/11/27 08:37:23;;;;;;;;;13.50;13.50;;;;;8.02;81.32;101147.94;5054772;28;45254;-72
2022/11/27 08:39:48;;;;;;;;;14.50;14.50;;;;;8.04;80.83;101138.31;5055140;28;45244;-70
2022/11/27 08:42:13;;;;;;;;;13.50;13.50;;;;;8.06;80.81;101138.28;5055449;28;45222;-72
2022/11/27 08:44:39;;;;;;;;;13.50;13.50;;;;;8.04;80.90;101134.84;5055085;28;45243;-72
2022/11/27 08:47:04;;;;;;;;;15.25;15.25;;;;;8.07;81.78;101133.91;5054487;28;45343;-71
2022/11/27 08:49:29;;;;;;;;;17.25;17.25;;;;;8.09;81.62;101126.88;5055192;28;45199;-71
2022/11/27 08:51:55;;;;;;;;;16.00;16.00;;;;;8.14;80.96;101125.00;5055033;28;45295;-70
2022/11/27 08:54:20;;;;;;;;;13.75;12.75;;;;;8.17;81.49;101124.94;5054888;28;45240;-72
2022/11/27 08:56:45;;;;;;;;;14.75;14.75;;;;;8.19;81.47;101112.66;5054786;28;46625;-71
2022/11/27 08:59:11;;;;;;;;;21.00;21.00;;;;;8.21;81.57;101105.63;5054838;28;45224;-72
2022/11/27 09:01:36;;;;;;;;;14.25;14.25;;;;;8.26;81.43;101103.78;5055128;28;45283;-70
2022/11/27 09:04:02;;;;;;;;;9.00;9.00;;;;;8.29;81.08;101101.09;5055310;28;45367;-71
2022/11/27 09:06:30;;;;;;;;;13.75;13.75;;;;;8.32;81.18;101092.31;5054544;28;46258;-71
2022/11/27 09:08:57;;;;;;;;;13.00;13.00;;;;;8.34;80.92;101091.34;5054893;28;45409;-71
2022/11/27 09:11:22;;;;;;;;;12.75;12.75;;;;;8.37;81.01;101086.94;5054939;28;45432;-73
2022/11/27 09:13:48;;;;;;;;;16.50;15.00;;;;;8.33;80.78;101073.91;5054893;28;45266;-69
2022/11/27 09:16:16;;;;;;;;;12.75;12.25;;;;;8.42;80.30;101079.84;5054643;28;46568;-72
2022/11/27 09:18:46;;;;;;;;;13.50;13.50;;;;;8.44;80.25;101065.81;5054936;28;45349;-72
2022/11/27 09:21:14;;;;;;;;;16.75;16.25;;;;;8.50;80.16;101075.34;5054856;28;45514;-71
2022/11/27 09:23:40;;;;;;;;;15.50;15.50;;;;;8.49;79.90;101081.47;5054789;28;45577;-72
2022/11/27 09:26:09;;;;;;;;;15.50;14.75;;;;;8.46;79.98;101076.25;5087351;27;47381;-70
2022/11/27 09:28:36;;;;;;;;;13.75;13.75;;;;;8.49;79.84;101073.59;5054800;28;45745;-72
2022/11/27 09:31:03;;;;;;;;;15.50;15.50;;;;;8.55;79.99;101077.81;5053448;28;45351;-71
2022/11/27 09:33:31;;;;;;;;;18.25;18.25;;;;;8.56;79.53;101074.31;5087257;27;45278;-71
2022/11/27 09:35:56;;;;;;;;;16.00;16.00;;;;;8.57;79.72;101069.03;5054616;28;45254;-72
2022/11/27 09:38:22;;;;;;;;;15.25;15.25;;;;;8.60;79.32;101062.84;5054276;28;45481;-72
2022/11/27 09:40:50;;;;;;;;;18.75;18.75;;;;;8.61;79.39;101052.34;5053076;28;45427;-72
2022/11/27 09:43:19;;;;;;;;;19.75;18.25;;;;;8.65;79.62;101045.22;5054669;28;45519;-72
2022/11/27 09:45:56;;;;;;;;;14.25;14.25;;;;;8.66;79.29;101051.34;5054469;28;46070;-71
2022/11/27 09:48:45;;;;;;;;;16.50;16.50;;;;;8.69;79.26;101028.53;5057375;28;45376;-72
2022/11/27 09:51:28;;;;;;;;;13.00;13.00;;;;;8.73;79.03;101010.97;5057803;27;45347;-71
2022/11/27 09:54:24;;;;;;;;;15.00;15.00;;;;;8.79;78.75;101015.16;5057572;28;45391;-72
2022/11/27 09:56:52;;;;;;;;;17.00;17.00;;;;;8.69;79.04;100983.09;5056535;28;46639;-72
2022/11/27 09:59:20;;;;;;;;;17.00;17.00;;;;;8.86;78.29;101012.38;5057483;28;45183;-71
2022/11/27 10:01:46;;;;;;;;;14.00;14.00;;;;;8.90;78.48;101000.00;5057924;28;45330;-71
2022/11/27 10:04:15;;;;;;;;;14.00;14.00;;;;;8.95;78.18;101007.78;5090468;27;45365;-71
2022/11/27 10:07:04;;;;;;;;;13.75;12.75;;;;;8.98;77.87;101007.69;5057695;28;46150;-72
2022/11/27 10:09:50;;;;;;;;;21.00;21.00;;;;;9.02;77.85;101009.34;5057513;28;45492;-72
2022/11/27 10:12:34;;;;;;;;;20.50;20.50;;;;;9.06;77.94;101017.09;5058113;28;45407;-71
2022/11/27 10:15:27;;;;;;;;;14.25;14.25;;;;;9.10;77.76;101012.59;5056798;28;45530;-72
2022/11/27 10:18:04;;;;;;;;;15.25;15.25;;;;;9.10;77.00;101023.09;5057765;28;46273;-71
2022/11/27 10:20:53;;;;;;;;;13.75;13.75;;;;;9.05;77.26;101011.88;5057792;28;45221;-69
2022/11/27 10:23:56;;;;;;;;;13.75;13.75;;;;;9.08;77.10;101024.91;5058124;28;45475;-71
2022/11/27 10:26:33;;;;;;;;;18.75;17.50;;;;;9.06;76.85;101021.47;5090101;27;45658;-72
2022/11/27 10:29:35;;;;;;;;;15.75;15.75;;;;;9.11;76.90;101019.56;5057199;28;46560;-71
2022/11/27 10:32:10;;;;;;;;;13.00;13.00;;;;;9.14;77.11;101026.53;5056196;27;45372;-70
2022/11/27 10:34:38;;;;;;;;;12.75;12.75;;;;;9.15;77.35;101002.00;5057410;28;45235;-72
2022/11/27 10:37:20;;;;;;;;;13.50;13.50;;;;;9.17;76.86;101003.66;5057554;28;45405;-72
2022/11/27 10:39:51;;;;;;;;;23.25;22.00;;;;;9.16;77.09;100994.06;5057009;28;45956;-70
2022/11/27 10:42:58;;;;;;;;;16.25;16.25;;;;;9.12;77.09;100992.44;5057066;28;45376;-71
2022/11/27 10:45:58;;;;;;;;;18.50;18.50;;;;;9.18;77.03;100978.28;5038967;28;45225;-72
2022/11/27 10:48:24;;;;;;;;;18.00;18.00;;;;;9.20;77.36;100984.34;5051947;28;45669;-72
2022/11/27 10:50:50;;;;;;;;;19.00;18.75;;;;;9.21;77.24;100992.16;5056919;28;45408;-71
2022/11/27 10:53:21;;;;;;;;;16.00;16.00;;;;;9.25;77.15;100987.72;5089070;27;45887;-74
2022/11/27 10:56:05;;;;;;;;;19.25;19.25;;;;;9.30;77.46;100993.69;5057443;28;45344;-72
2022/11/27 10:58:58;;;;;;;;;50.00;43.25;;;;;9.33;76.70;100979.59;5056911;28;45597;-73
2022/11/27 11:01:26;;;;;;;;;11.50;11.50;;;;;9.33;76.31;100983.09;5051261;28;47065;-72
2022/11/27 11:04:09;;;;;;;;;18.00;18.00;;;;;9.33;76.71;100956.84;5056745;28;45329;-71
2022/11/27 11:06:46;;;;;;;;;16.25;16.25;;;;;9.43;76.55;100962.69;5055440;28;45281;-71
2022/11/27 11:09:14;;;;;;;;;36.25;34.25;;;;;9.41;76.59;100959.22;5056899;28;45438;-71
2022/11/27 11:11:40;;;;;;;;;19.00;18.25;;;;;9.43;76.74;100967.09;5057037;28;46134;-69
2022/11/27 11:14:25;;;;;;;;;15.25;15.25;;;;;9.43;76.58;100960.06;5088884;27;45414;-71
2022/11/27 11:16:53;;;;;;;;;19.25;19.25;;;;;9.38;76.26;100951.44;5056763;28;45450;-70
2022/11/27 11:19:30;;;;;;;;;19.25;17.25;;;;;9.41;76.71;100959.22;5057170;28;45227;-70
2022/11/27 11:21:56;;;;;;;;;17.50;17.50;;;;;9.40;76.72;100946.16;5056593;28;46105;-71
2022/11/27 11:24:30;;;;;;;;;15.00;15.00;;;;;9.43;77.09;100941.66;5055466;28;45311;-71
2022/11/27 11:27:00;;;;;;;;;18.50;18.25;;;;;9.40;76.92;100939.13;5056629;28;45197;-72
2022/11/27 11:29:36;;;;;;;;;19.50;18.50;;;;;9.42;76.91;100939.94;5088928;27;45484;-71
2022/11/27 11:32:08;;;;;;;;;18.00;18.00;;;;;9.40;77.30;100912.03;5056818;28;45563;-71